KNZY/NZY METAR and TAF weather

Enter ICAO airport designator
Station Type Date Time Source
KNZY METAR 2020/09/25 07:52 UTC NOAA

KNZY 250752Z 15006KT 7SM BKN008 19/17 A2989 RMK AO2 SLP122 T01940172 402720178


Station Type Date Time Source
KNZY Decoded METAR 2020/09/25 07:52 UTC NOAA

NAS NORTH ISLAND, SAN DIEGO, CA, United States (KNZY) 32-42N 117-13W 14M
Sep 25, 2020 - 03:52 AM EDT / 2020.09.25 0752 UTC
Wind: from the SSE (150 degrees) at 7 MPH (6 KT):0
Visibility: 7 mile(s):0
Sky conditions: mostly cloudy
Temperature: 66.9 F (19.4 C)
Dew Point: 63.0 F (17.2 C)
Relative Humidity: 87%
Pressure (altimeter): 29.89 in. Hg (1012 hPa)
ob: KNZY 250752Z 15006KT 7SM BKN008 19/17 A2989 RMK AO2 SLP122 T01940172 402720178
cycle: 8

Station Type Date Time Source
KNZY TAF 2020/09/25 07:30 UTC NOAA

TAF KNZY 2507/2607 VRB06KT 9999 BKN010 QNH2984INS
TEMPO 2508/2514 4800 BR BKN009
FM251900 27009KT 9999 FEW010 FEW200 QNH2985INS T18/2513Z T24/2522Z FS30171

Example: see airport list